Time;durP1;ratioP1;P1;durP2;ratioP2;P2;SDS_P1;SDS_P2;PMS_P1;PMS_P2;Temp;Humidity;BMP_temperature;BMP_pressure;BME280_temperature;BME280_humidity;BME280_pressure;Samples;Min_cycle;Max_cycle;Signal;HPM_P1;HPM_P2
2024/04/01 00:01:55;;;;;;;;;;;24.20;49.00;;;;;;5070532;28;19927;-47
2024/04/01 00:04:21;;;;;;;;;;;24.20;49.00;;;;;;5072422;28;19912;-43
2024/04/01 00:06:47;;;;;;;;;;;24.20;49.00;;;;;;5071778;28;19909;-46
2024/04/01 00:09:13;;;;;;;;;;;24.20;49.00;;;;;;5068596;28;19938;-46
2024/04/01 00:11:39;;;;;;;;;;;24.10;48.90;;;;;;5067987;28;20380;-44
2024/04/01 00:14:05;;;;;;;;;;;24.10;48.90;;;;;;5066630;28;19915;-45
2024/04/01 00:16:31;;;;;;;;;;;24.20;48.90;;;;;;5082286;28;19912;-47
2024/04/01 00:18:57;;;;;;;;;;;24.20;48.90;;;;;;5080806;28;19908;-47
2024/04/01 00:21:23;;;;;;;;;;;24.20;48.90;;;;;;5081157;28;19916;-43
2024/04/01 00:23:53;;;;;;;;;;;24.10;48.80;;;;;;5079789;28;20018;-43
2024/04/01 00:26:19;;;;;;;;;;;24.10;48.80;;;;;;5070807;28;19995;-48
2024/04/01 00:28:44;;;;;;;;;;;24.10;48.90;;;;;;5075568;28;19909;-42
2024/04/01 00:31:10;;;;;;;;;;;24.10;48.90;;;;;;5066540;28;19920;-44
2024/04/01 00:33:36;;;;;;;;;;;24.10;48.90;;;;;;5074147;28;19912;-46
2024/04/01 00:36:02;;;;;;;;;;;24.10;48.90;;;;;;5073366;28;20323;-44
2024/04/01 00:38:28;;;;;;;;;;;24.10;48.90;;;;;;5064973;28;19935;-50
2024/04/01 00:40:54;;;;;;;;;;;24.10;48.90;;;;;;5066059;28;20043;-46
2024/04/01 00:43:20;;;;;;;;;;;24.10;48.90;;;;;;5071200;28;19991;-46
2024/04/01 00:45:46;;;;;;;;;;;24.00;48.90;;;;;;5062795;28;19920;-49
2024/04/01 00:48:13;;;;;;;;;;;24.10;48.90;;;;;;5067599;28;19918;-49
2024/04/01 00:50:39;;;;;;;;;;;24.00;48.80;;;;;;5074376;28;20285;-48
2024/04/01 00:53:05;;;;;;;;;;;24.00;48.80;;;;;;5078650;28;19920;-44
2024/04/01 00:55:32;;;;;;;;;;;24.00;48.80;;;;;;5072917;28;19912;-44
2024/04/01 00:57:59;;;;;;;;;;;24.00;48.80;;;;;;5081666;28;20541;-45
2024/04/01 01:00:25;;;;;;;;;;;24.00;48.90;;;;;;5078192;28;19923;-46
2024/04/01 01:02:52;;;;;;;;;;;24.00;48.90;;;;;;5068684;28;19920;-47
2024/04/01 01:05:18;;;;;;;;;;;24.00;48.90;;;;;;5063589;28;19909;-47
2024/04/01 01:07:44;;;;;;;;;;;24.00;49.00;;;;;;5079987;28;19935;-49
2024/04/01 01:10:10;;;;;;;;;;;24.00;49.00;;;;;;5076205;28;20752;-52
2024/04/01 01:12:39;;;;;;;;;;;23.90;49.00;;;;;;5071732;28;19912;-45
2024/04/01 01:15:06;;;;;;;;;;;23.90;49.00;;;;;;5077223;28;19912;-50
2024/04/01 01:17:32;;;;;;;;;;;23.90;48.90;;;;;;5074612;28;19924;-44
2024/04/01 01:19:58;;;;;;;;;;;23.90;48.90;;;;;;5081565;28;19919;-49
2024/04/01 01:22:33;;;;;;;;;;;23.90;48.90;;;;;;5067949;28;19940;-49
2024/04/01 01:24:59;;;;;;;;;;;23.90;48.90;;;;;;5078244;28;19919;-49
2024/04/01 01:27:25;;;;;;;;;;;23.90;48.90;;;;;;5080085;28;19988;-47
2024/04/01 01:29:51;;;;;;;;;;;23.80;48.90;;;;;;5079845;28;20042;-47
2024/04/01 01:32:17;;;;;;;;;;;23.80;49.00;;;;;;5069206;28;20300;-48
2024/04/01 01:34:44;;;;;;;;;;;23.80;49.10;;;;;;5074875;28;19966;-48
2024/04/01 01:37:10;;;;;;;;;;;23.80;49.10;;;;;;5068091;28;19912;-48
2024/04/01 01:39:36;;;;;;;;;;;23.80;49.20;;;;;;5072356;28;19912;-47
2024/04/01 01:42:01;;;;;;;;;;;23.70;49.10;;;;;;5067422;28;19963;-46
2024/04/01 01:44:27;;;;;;;;;;;23.80;49.10;;;;;;5076807;28;19913;-46
2024/04/01 01:46:53;;;;;;;;;;;23.70;49.00;;;;;;5077475;28;20313;-44
2024/04/01 01:49:19;;;;;;;;;;;23.70;49.00;;;;;;5075411;28;19916;-44
2024/04/01 01:51:46;;;;;;;;;;;23.70;48.90;;;;;;5066942;28;19939;-44
2024/04/01 01:54:12;;;;;;;;;;;23.70;48.90;;;;;;5073310;28;20429;-44
2024/04/01 01:56:38;;;;;;;;;;;23.70;48.90;;;;;;5075088;28;19950;-46
2024/04/01 01:59:04;;;;;;;;;;;23.70;48.90;;;;;;5072971;28;19955;-48
2024/04/01 02:01:30;;;;;;;;;;;23.70;48.90;;;;;;5069747;28;19913;-45
2024/04/01 02:03:56;;;;;;;;;;;23.70;49.00;;;;;;5070636;28;19979;-44
2024/04/01 02:06:22;;;;;;;;;;;23.60;49.00;;;;;;5072733;28;19955;-46
2024/04/01 02:08:48;;;;;;;;;;;23.60;49.20;;;;;;5070163;28;19988;-44
2024/04/01 02:11:14;;;;;;;;;;;23.60;49.20;;;;;;5072832;28;19930;-45
2024/04/01 02:13:40;;;;;;;;;;;23.60;49.20;;;;;;5072610;28;19912;-48
2024/04/01 02:16:09;;;;;;;;;;;23.60;49.00;;;;;;5073375;28;19972;-47
2024/04/01 02:18:35;;;;;;;;;;;23.60;48.80;;;;;;5067732;28;19913;-47
2024/04/01 02:21:01;;;;;;;;;;;23.60;48.90;;;;;;5072916;28;19955;-48
2024/04/01 02:23:31;;;;;;;;;;;23.60;48.90;;;;;;5074967;28;20381;-44
2024/04/01 02:26:01;;;;;;;;;;;23.50;49.10;;;;;;5073857;28;19995;-44
2024/04/01 02:28:29;;;;;;;;;;;23.50;48.70;;;;;;5074131;28;19908;-44
2024/04/01 02:30:55;;;;;;;;;;;23.50;48.60;;;;;;5073487;28;19909;-46
2024/04/01 02:33:20;;;;;;;;;;;23.50;48.50;;;;;;5079169;28;19966;-45
2024/04/01 02:35:46;;;;;;;;;;;23.50;48.60;;;;;;5071991;28;19934;-46
2024/04/01 02:38:12;;;;;;;;;;;23.40;48.50;;;;;;5066391;28;19913;-44
2024/04/01 02:40:38;;;;;;;;;;;23.40;48.60;;;;;;5074426;28;19909;-47
2024/04/01 02:43:04;;;;;;;;;;;23.40;48.60;;;;;;5069054;28;19967;-46
2024/04/01 02:45:30;;;;;;;;;;;23.40;48.60;;;;;;5065860;28;19916;-44
2024/04/01 02:47:56;;;;;;;;;;;23.40;48.50;;;;;;5074134;28;19913;-46
2024/04/01 02:50:22;;;;;;;;;;;23.30;48.50;;;;;;5074073;28;19917;-50
2024/04/01 02:52:48;;;;;;;;;;;23.30;48.50;;;;;;5069070;28;19924;-47
2024/04/01 02:55:14;;;;;;;;;;;23.30;48.40;;;;;;5073534;28;19913;-45
2024/04/01 02:57:40;;;;;;;;;;;23.30;48.40;;;;;;5079463;28;19912;-44
2024/04/01 03:00:07;;;;;;;;;;;23.30;48.30;;;;;;5078914;28;19919;-46
2024/04/01 03:02:36;;;;;;;;;;;23.20;48.30;;;;;;5082827;28;19939;-47
2024/04/01 03:05:02;;;;;;;;;;;23.30;48.40;;;;;;5075868;28;19912;-47
2024/04/01 03:07:27;;;;;;;;;;;23.30;48.40;;;;;;5066897;28;20097;-51
2024/04/01 03:09:56;;;;;;;;;;;23.20;48.30;;;;;;5074717;28;19913;-47
2024/04/01 03:12:22;;;;;;;;;;;23.20;48.30;;;;;;5073533;28;20022;-48
2024/04/01 03:14:48;;;;;;;;;;;23.20;48.40;;;;;;5064197;28;20381;-45
2024/04/01 03:17:16;;;;;;;;;;;23.20;48.40;;;;;;5073983;28;19912;-50
2024/04/01 03:19:42;;;;;;;;;;;23.20;48.40;;;;;;5076232;28;19923;-48
2024/04/01 03:22:08;;;;;;;;;;;23.10;48.30;;;;;;5083301;28;19965;-44
2024/04/01 03:24:34;;;;;;;;;;;23.10;48.30;;;;;;5073796;28;20036;-45
2024/04/01 03:26:59;;;;;;;;;;;23.10;48.40;;;;;;5069623;28;20392;-46
2024/04/01 03:29:25;;;;;;;;;;;23.10;48.40;;;;;;5069115;28;19920;-46
2024/04/01 03:31:51;;;;;;;;;;;23.10;48.40;;;;;;5074096;28;19912;-45
2024/04/01 03:34:19;;;;;;;;;;;23.10;48.40;;;;;;5070460;28;19916;-45
2024/04/01 03:36:45;;;;;;;;;;;23.00;48.40;;;;;;5069483;28;19999;-44
2024/04/01 03:39:13;;;;;;;;;;;23.00;48.40;;;;;;5071718;28;19908;-50
2024/04/01 03:41:39;;;;;;;;;;;23.00;48.40;;;;;;5071464;28;19913;-47
2024/04/01 03:44:05;;;;;;;;;;;23.00;48.40;;;;;;5069534;28;19920;-48
2024/04/01 03:46:31;;;;;;;;;;;22.90;48.40;;;;;;5068421;28;19919;-46
2024/04/01 03:48:57;;;;;;;;;;;22.90;48.40;;;;;;5068824;28;19909;-46
2024/04/01 03:51:23;;;;;;;;;;;22.90;48.50;;;;;;5068845;28;19923;-45
2024/04/01 03:53:49;;;;;;;;;;;22.90;48.50;;;;;;5071543;28;19920;-47
2024/04/01 03:56:15;;;;;;;;;;;22.90;48.50;;;;;;5079740;28;19911;-45
2024/04/01 03:58:41;;;;;;;;;;;22.80;48.50;;;;;;5064801;28;19912;-47
2024/04/01 04:01:06;;;;;;;;;;;22.80;48.50;;;;;;5063672;28;19908;-45
2024/04/01 04:03:32;;;;;;;;;;;22.80;48.60;;;;;;5070783;28;19963;-45
2024/04/01 04:05:58;;;;;;;;;;;22.80;48.50;;;;;;5064583;28;19908;-48
2024/04/01 04:08:24;;;;;;;;;;;22.80;48.50;;;;;;5065245;28;19912;-48
2024/04/01 04:10:50;;;;;;;;;;;22.80;48.60;;;;;;5066527;28;19965;-50
2024/04/01 04:13:16;;;;;;;;;;;22.80;48.60;;;;;;5071058;28;19912;-48
2024/04/01 04:15:42;;;;;;;;;;;22.70;48.50;;;;;;5071227;28;19917;-47
2024/04/01 04:18:07;;;;;;;;;;;22.70;48.60;;;;;;5072200;28;20050;-49
2024/04/01 04:20:33;;;;;;;;;;;22.70;48.60;;;;;;5081897;28;19943;-47
2024/04/01 04:22:59;;;;;;;;;;;22.70;48.60;;;;;;5074073;28;19913;-47
2024/04/01 04:25:25;;;;;;;;;;;22.70;48.70;;;;;;5080044;28;19916;-45
2024/04/01 04:27:51;;;;;;;;;;;22.70;48.60;;;;;;5070232;28;19943;-45
2024/04/01 04:30:17;;;;;;;;;;;22.60;48.60;;;;;;5064416;28;19913;-48
2024/04/01 04:32:43;;;;;;;;;;;22.60;48.60;;;;;;5074666;28;19923;-46
2024/04/01 04:35:09;;;;;;;;;;;22.60;48.60;;;;;;5080956;28;19943;-44
2024/04/01 04:37:38;;;;;;;;;;;22.60;48.70;;;;;;5069087;28;19913;-48
2024/04/01 04:40:04;;;;;;;;;;;22.60;48.70;;;;;;5065423;28;19935;-50
2024/04/01 04:42:30;;;;;;;;;;;22.50;48.60;;;;;;5080461;28;19917;-46
2024/04/01 04:44:56;;;;;;;;;;;22.50;48.70;;;;;;5074389;28;19920;-45
2024/04/01 04:47:22;;;;;;;;;;;22.50;48.70;;;;;;5079982;28;19971;-46
2024/04/01 04:49:48;;;;;;;;;;;22.50;48.70;;;;;;5069684;28;19963;-48
2024/04/01 04:52:14;;;;;;;;;;;22.50;48.80;;;;;;5078114;28;19912;-50
2024/04/01 04:54:40;;;;;;;;;;;22.50;48.80;;;;;;5077629;28;20011;-45
2024/04/01 04:57:06;;;;;;;;;;;22.40;48.70;;;;;;5080134;28;19912;-51
2024/04/01 04:59:33;;;;;;;;;;;22.40;48.80;;;;;;5073267;28;19912;-45
2024/04/01 05:02:06;;;;;;;;;;;22.40;48.80;;;;;;5080825;28;19970;-49
2024/04/01 05:04:33;;;;;;;;;;;22.40;48.80;;;;;;5063655;28;19982;-48
2024/04/01 05:07:00;;;;;;;;;;;22.30;48.80;;;;;;5071072;28;19919;-48
2024/04/01 05:09:25;;;;;;;;;;;22.30;48.80;;;;;;5076722;28;19939;-47
2024/04/01 05:11:53;;;;;;;;;;;22.30;48.80;;;;;;5069729;28;19909;-43
2024/04/01 05:14:21;;;;;;;;;;;22.30;48.80;;;;;;5078902;28;19944;-44
2024/04/01 05:16:48;;;;;;;;;;;22.30;48.80;;;;;;5077181;28;19913;-46
2024/04/01 05:19:13;;;;;;;;;;;22.30;48.80;;;;;;5078522;28;19920;-48
2024/04/01 05:21:39;;;;;;;;;;;22.30;48.90;;;;;;5074371;28;19967;-46
2024/04/01 05:24:05;;;;;;;;;;;22.20;48.80;;;;;;5067107;28;19974;-50
2024/04/01 05:26:31;;;;;;;;;;;22.20;48.80;;;;;;5065892;28;19919;-46
2024/04/01 05:28:57;;;;;;;;;;;22.20;48.90;;;;;;5066764;28;19923;-43
2024/04/01 05:31:23;;;;;;;;;;;22.20;48.90;;;;;;5064791;28;19987;-47
2024/04/01 05:33:50;;;;;;;;;;;22.20;48.90;;;;;;5068884;28;19951;-44
2024/04/01 05:36:17;;;;;;;;;;;22.20;48.90;;;;;;5065759;28;19934;-45
2024/04/01 05:38:43;;;;;;;;;;;22.10;49.00;;;;;;5066440;28;19919;-44
2024/04/01 05:41:09;;;;;;;;;;;22.10;48.90;;;;;;5070165;28;19944;-47
2024/04/01 05:43:35;;;;;;;;;;;22.10;48.90;;;;;;5065858;28;19912;-44
2024/04/01 05:46:00;;;;;;;;;;;22.10;49.00;;;;;;5069578;28;20404;-45
2024/04/01 05:48:26;;;;;;;;;;;22.10;49.00;;;;;;5071492;28;21852;-46
2024/04/01 05:50:52;;;;;;;;;;;22.00;49.00;;;;;;5066690;28;19913;-44
2024/04/01 05:53:18;;;;;;;;;;;22.00;49.00;;;;;;5070707;28;19909;-45
2024/04/01 05:55:45;;;;;;;;;;;22.00;49.00;;;;;;5077501;28;19913;-46
2024/04/01 05:58:11;;;;;;;;;;;22.00;49.00;;;;;;5080105;28;19912;-47
2024/04/01 06:00:37;;;;;;;;;;;22.00;49.00;;;;;;5080516;28;20091;-47
2024/04/01 06:03:05;;;;;;;;;;;22.00;49.10;;;;;;5079164;28;19920;-45
2024/04/01 06:05:31;;;;;;;;;;;21.90;49.10;;;;;;5079353;28;19912;-46
2024/04/01 06:07:57;;;;;;;;;;;21.90;49.10;;;;;;5080341;28;19944;-46
2024/04/01 06:10:23;;;;;;;;;;;21.90;49.10;;;;;;5080913;28;19912;-47
2024/04/01 06:12:52;;;;;;;;;;;21.90;49.10;;;;;;5079036;28;19913;-44
2024/04/01 06:15:18;;;;;;;;;;;21.90;49.20;;;;;;5075724;28;19915;-46
2024/04/01 06:17:44;;;;;;;;;;;21.80;49.10;;;;;;5079670;28;20324;-46
2024/04/01 06:20:13;;;;;;;;;;;21.80;49.10;;;;;;5080867;28;19916;-44
2024/04/01 06:22:38;;;;;;;;;;;21.80;49.10;;;;;;5069281;28;19973;-46
2024/04/01 06:25:05;;;;;;;;;;;21.80;49.20;;;;;;5081401;28;19985;-47
2024/04/01 06:27:31;;;;;;;;;;;21.80;49.20;;;;;;5083110;28;19913;-46
2024/04/01 06:29:57;;;;;;;;;;;21.80;49.20;;;;;;5083653;28;19915;-48
2024/04/01 06:32:23;;;;;;;;;;;21.80;49.20;;;;;;5081246;28;19912;-47
2024/04/01 06:34:50;;;;;;;;;;;21.80;49.20;;;;;;5075694;28;19912;-47
2024/04/01 06:37:15;;;;;;;;;;;21.80;49.20;;;;;;5079479;28;19912;-44
2024/04/01 06:39:41;;;;;;;;;;;21.70;49.20;;;;;;5077852;28;19954;-47
2024/04/01 06:42:07;;;;;;;;;;;21.70;49.20;;;;;;5083319;28;20016;-44
2024/04/01 06:44:33;;;;;;;;;;;21.70;49.20;;;;;;5082029;28;20639;-46
2024/04/01 06:46:59;;;;;;;;;;;21.70;49.30;;;;;;5083135;28;19922;-48
2024/04/01 06:49:27;;;;;;;;;;;21.70;49.30;;;;;;5081945;28;19925;-48
2024/04/01 06:51:53;;;;;;;;;;;21.70;49.30;;;;;;5078478;28;19985;-46
2024/04/01 06:54:18;;;;;;;;;;;21.60;49.30;;;;;;5071807;28;19915;-45
2024/04/01 06:56:44;;;;;;;;;;;21.60;49.30;;;;;;5073492;28;19909;-46
2024/04/01 06:59:10;;;;;;;;;;;21.60;49.30;;;;;;5074614;28;19912;-44
2024/04/01 07:01:37;;;;;;;;;;;21.60;49.30;;;;;;5074647;28;19921;-45
2024/04/01 07:04:02;;;;;;;;;;;21.60;49.30;;;;;;5072968;28;19916;-47
2024/04/01 07:06:28;;;;;;;;;;;21.60;49.40;;;;;;5071645;28;19922;-45
2024/04/01 07:08:54;;;;;;;;;;;21.50;49.30;;;;;;5072989;28;19968;-44
2024/04/01 07:11:20;;;;;;;;;;;21.50;49.30;;;;;;5072901;28;20598;-46
2024/04/01 07:13:46;;;;;;;;;;;21.50;49.40;;;;;;5072987;28;19916;-45
2024/04/01 07:16:12;;;;;;;;;;;21.50;49.40;;;;;;5073357;28;19912;-48
2024/04/01 07:18:38;;;;;;;;;;;21.50;49.40;;;;;;5074684;28;20361;-46
2024/04/01 07:21:04;;;;;;;;;;;21.50;49.40;;;;;;5074357;28;19916;-44
2024/04/01 07:23:30;;;;;;;;;;;21.50;49.40;;;;;;5074010;28;19916;-48
2024/04/01 07:25:56;;;;;;;;;;;21.50;49.40;;;;;;5070909;28;19919;-45
2024/04/01 07:28:22;;;;;;;;;;;21.40;49.40;;;;;;5068739;28;19913;-46
2024/04/01 07:30:47;;;;;;;;;;;21.40;49.40;;;;;;5078509;28;19943;-50
2024/04/01 07:33:13;;;;;;;;;;;21.40;49.40;;;;;;5073763;28;19919;-48
2024/04/01 07:35:39;;;;;;;;;;;21.40;49.50;;;;;;5065233;28;19909;-49
2024/04/01 07:38:05;;;;;;;;;;;21.40;49.40;;;;;;5069431;28;19913;-48
2024/04/01 07:40:32;;;;;;;;;;;21.40;49.50;;;;;;5074887;28;19912;-49
2024/04/01 07:42:58;;;;;;;;;;;21.40;49.50;;;;;;5073416;28;19927;-47
2024/04/01 07:45:24;;;;;;;;;;;21.30;49.40;;;;;;5067964;28;20550;-51
2024/04/01 07:47:50;;;;;;;;;;;21.30;49.50;;;;;;5070268;28;19913;-50
2024/04/01 07:50:16;;;;;;;;;;;21.30;49.50;;;;;;5074021;28;19919;-50
2024/04/01 07:52:42;;;;;;;;;;;21.30;49.50;;;;;;5071200;28;19938;-49
2024/04/01 07:55:07;;;;;;;;;;;21.30;49.50;;;;;;5063849;28;19922;-46
2024/04/01 07:57:33;;;;;;;;;;;21.30;49.60;;;;;;5065426;28;19947;-49
2024/04/01 07:59:59;;;;;;;;;;;21.30;49.60;;;;;;5062132;28;19909;-50
2024/04/01 08:02:25;;;;;;;;;;;21.20;49.50;;;;;;5064613;28;19930;-48
2024/04/01 08:04:51;;;;;;;;;;;21.20;49.50;;;;;;5064622;28;19999;-47
2024/04/01 08:07:17;;;;;;;;;;;21.20;49.50;;;;;;5061585;28;19920;-46
2024/04/01 08:09:43;;;;;;;;;;;21.20;49.50;;;;;;5069667;28;20664;-51
2024/04/01 08:12:09;;;;;;;;;;;21.20;49.50;;;;;;5071362;28;19916;-49
2024/04/01 08:14:35;;;;;;;;;;;21.20;49.60;;;;;;5069627;28;19995;-46
2024/04/01 08:17:01;;;;;;;;;;;21.20;49.60;;;;;;5072786;28;19913;-46
2024/04/01 08:19:28;;;;;;;;;;;21.20;49.60;;;;;;5070780;28;19927;-50
2024/04/01 08:21:54;;;;;;;;;;;21.10;49.60;;;;;;5069468;28;20276;-47
2024/04/01 08:24:20;;;;;;;;;;;21.10;49.60;;;;;;5071549;28;19912;-45
2024/04/01 08:26:45;;;;;;;;;;;21.10;49.60;;;;;;5068651;28;19991;-44
2024/04/01 08:29:13;;;;;;;;;;;21.10;49.60;;;;;;5075001;28;19908;-47
2024/04/01 08:31:39;;;;;;;;;;;21.10;49.70;;;;;;5078965;28;19908;-49
2024/04/01 08:34:05;;;;;;;;;;;21.10;49.70;;;;;;5072024;28;19936;-45
2024/04/01 08:36:31;;;;;;;;;;;21.10;49.70;;;;;;5071478;28;19920;-46
2024/04/01 08:38:57;;;;;;;;;;;21.10;49.70;;;;;;5067657;28;20642;-49
2024/04/01 08:41:32;;;;;;;;;;;21.00;49.70;;;;;;5073236;28;19967;-50
2024/04/01 08:44:01;;;;;;;;;;;21.00;49.70;;;;;;5070970;28;20035;-50
2024/04/01 08:46:27;;;;;;;;;;;21.00;49.70;;;;;;5071872;28;19927;-51
2024/04/01 08:48:53;;;;;;;;;;;21.00;49.70;;;;;;5062192;28;19918;-49
2024/04/01 08:51:19;;;;;;;;;;;21.00;49.80;;;;;;5069601;28;19934;-50
2024/04/01 08:53:58;;;;;;;;;;;21.00;49.70;;;;;;5066572;28;20026;-47
2024/04/01 08:56:25;;;;;;;;;;;21.00;49.80;;;;;;5064755;28;19909;-49
2024/04/01 08:58:51;;;;;;;;;;;20.90;49.70;;;;;;5067001;28;19913;-49
2024/04/01 09:01:17;;;;;;;;;;;20.90;49.70;;;;;;5070608;28;19922;-45
2024/04/01 09:03:42;;;;;;;;;;;20.90;49.70;;;;;;5067552;28;19983;-46
2024/04/01 09:06:08;;;;;;;;;;;20.90;49.80;;;;;;5062427;28;19999;-49
2024/04/01 09:08:34;;;;;;;;;;;20.90;49.70;;;;;;5069768;28;19912;-44
2024/04/01 09:11:00;;;;;;;;;;;20.90;49.80;;;;;;5070610;28;19908;-45
2024/04/01 09:13:26;;;;;;;;;;;20.90;49.80;;;;;;5070596;28;19942;-45
2024/04/01 09:15:52;;;;;;;;;;;20.90;49.80;;;;;;5070336;28;20359;-46
2024/04/01 09:18:18;;;;;;;;;;;20.90;49.80;;;;;;5069645;28;19912;-47
2024/04/01 09:20:44;;;;;;;;;;;20.90;49.80;;;;;;5068732;28;19913;-46
2024/04/01 09:23:10;;;;;;;;;;;20.90;49.80;;;;;;5069982;28;19924;-44
2024/04/01 09:25:36;;;;;;;;;;;20.80;49.80;;;;;;5063390;28;19913;-44
2024/04/01 09:28:01;;;;;;;;;;;20.80;49.80;;;;;;5063283;28;19931;-45
2024/04/01 09:30:27;;;;;;;;;;;20.80;49.80;;;;;;5077885;28;19920;-45
2024/04/01 09:32:53;;;;;;;;;;;20.80;49.90;;;;;;5071317;28;19908;-48
2024/04/01 09:35:21;;;;;;;;;;;20.80;49.90;;;;;;5079939;28;19979;-47
2024/04/01 09:37:47;;;;;;;;;;;20.80;49.90;;;;;;5064681;28;19992;-46
2024/04/01 09:40:14;;;;;;;;;;;20.80;49.90;;;;;;5067916;28;19975;-46
2024/04/01 09:42:40;;;;;;;;;;;20.80;49.90;;;;;;5069537;28;20612;-44
2024/04/01 09:45:08;;;;;;;;;;;20.80;49.90;;;;;;5070016;28;19980;-49
2024/04/01 09:47:37;;;;;;;;;;;20.80;49.90;;;;;;5071441;28;19948;-45
2024/04/01 09:50:04;;;;;;;;;;;20.70;49.90;;;;;;5072575;28;19939;-48
2024/04/01 09:52:30;;;;;;;;;;;20.70;49.90;;;;;;5070708;28;19913;-47
2024/04/01 09:54:56;;;;;;;;;;;20.70;49.90;;;;;;5064289;28;19919;-45
2024/04/01 09:57:31;;;;;;;;;;;20.70;50.00;;;;;;5065611;28;19913;-46
2024/04/01 10:00:04;;;;;;;;;;;20.70;50.00;;;;;;5061579;28;19924;-48
2024/04/01 10:02:49;;;;;;;;;;;20.70;50.00;;;;;;5062181;28;19928;-45
2024/04/01 10:05:44;;;;;;;;;;;20.70;50.60;;;;;;5064855;28;20341;-45
2024/04/01 10:08:13;;;;;;;;;;;20.70;50.00;;;;;;5067211;28;19913;-47
2024/04/01 10:10:41;;;;;;;;;;;20.60;50.00;;;;;;5073516;28;19909;-49
2024/04/01 10:13:13;;;;;;;;;;;20.60;50.00;;;;;;5071474;28;19967;-45
2024/04/01 10:15:49;;;;;;;;;;;20.60;50.10;;;;;;5070984;28;19908;-47
2024/04/01 10:18:33;;;;;;;;;;;20.60;50.00;;;;;;5073088;28;19909;-51
2024/04/01 10:21:17;;;;;;;;;;;20.60;50.10;;;;;;5073234;28;19912;-47
2024/04/01 10:23:55;;;;;;;;;;;20.60;50.10;;;;;;5073606;28;19925;-51
2024/04/01 10:26:24;;;;;;;;;;;20.60;50.10;;;;;;5072023;28;19944;-50
2024/04/01 10:29:10;;;;;;;;;;;20.50;50.00;;;;;;5062715;28;19947;-49
2024/04/01 10:31:39;;;;;;;;;;;20.60;50.10;;;;;;5069956;28;20527;-44
2024/04/01 10:34:17;;;;;;;;;;;20.50;50.10;;;;;;5063691;28;20438;-46
2024/04/01 10:37:08;;;;;;;;;;;20.50;50.10;;;;;;5063469;28;19917;-49
2024/04/01 10:39:52;;;;;;;;;;;20.50;50.10;;;;;;5073992;28;19920;-50
2024/04/01 10:42:22;;;;;;;;;;;20.50;50.10;;;;;;5064021;28;19916;-47
2024/04/01 10:44:48;;;;;;;;;;;20.50;50.10;;;;;;5075306;28;19916;-51
2024/04/01 10:47:26;;;;;;;;;;;20.50;50.20;;;;;;5075594;28;19931;-44
2024/04/01 10:49:59;;;;;;;;;;;20.40;50.10;;;;;;5083064;28;19912;-47
2024/04/01 10:52:43;;;;;;;;;;;20.50;50.20;;;;;;5066855;28;19943;-49
2024/04/01 10:55:09;;;;;;;;;;;20.40;50.10;;;;;;5067586;28;19976;-51
2024/04/01 10:57:35;;;;;;;;;;;20.40;50.20;;;;;;5082348;28;20026;-48
2024/04/01 11:00:10;;;;;;;;;;;20.40;50.20;;;;;;5076247;28;19912;-46
2024/04/01 11:02:45;;;;;;;;;;;20.40;50.20;;;;;;5072828;28;19959;-44
2024/04/01 11:05:28;;;;;;;;;;;20.40;50.20;;;;;;5079716;28;19920;-45
2024/04/01 11:08:13;;;;;;;;;;;20.40;50.20;;;;;;5069822;28;19912;-49
2024/04/01 11:10:40;;;;;;;;;;;20.40;50.20;;;;;;5073819;28;19916;-47
2024/04/01 11:13:11;;;;;;;;;;;20.30;50.20;;;;;;5076508;28;20356;-47
2024/04/01 11:15:37;;;;;;;;;;;20.30;50.20;;;;;;5067892;28;19909;-46
2024/04/01 11:18:10;;;;;;;;;;;20.30;50.20;;;;;;5082423;28;19909;-44
2024/04/01 11:20:57;;;;;;;;;;;20.30;50.30;;;;;;5067638;28;19937;-46
2024/04/01 11:23:32;;;;;;;;;;;20.30;50.30;;;;;;5078277;28;19920;-47
2024/04/01 11:26:13;;;;;;;;;;;20.30;50.30;;;;;;5066819;28;19923;-45
2024/04/01 11:28:48;;;;;;;;;;;20.30;50.30;;;;;;5065204;28;19908;-49
2024/04/01 11:31:17;;;;;;;;;;;20.30;50.30;;;;;;5071542;28;19908;-50
2024/04/01 11:33:44;;;;;;;;;;;20.30;50.30;;;;;;5073830;28;19965;-48
2024/04/01 11:36:10;;;;;;;;;;;20.30;50.30;;;;;;5074435;28;19934;-46
2024/04/01 11:38:48;;;;;;;;;;;20.30;50.30;;;;;;5070436;28;19912;-48
2024/04/01 11:41:14;;;;;;;;;;;20.30;50.30;;;;;;5072953;28;19912;-45
2024/04/01 11:43:40;;;;;;;;;;;20.30;50.30;;;;;;5070251;28;19927;-44
2024/04/01 11:46:06;;;;;;;;;;;20.30;50.30;;;;;;5070095;28;19916;-47
2024/04/01 11:48:32;;;;;;;;;;;20.20;50.20;;;;;;5081408;28;20031;-46
2024/04/01 11:50:58;;;;;;;;;;;20.20;50.30;;;;;;5074913;28;20444;-47
2024/04/01 11:53:24;;;;;;;;;;;20.20;50.30;;;;;;5073465;28;20034;-47
2024/04/01 11:55:54;;;;;;;;;;;20.20;50.30;;;;;;5067538;28;19912;-45
2024/04/01 11:58:20;;;;;;;;;;;20.20;50.30;;;;;;5070485;28;19913;-46
2024/04/01 12:00:53;;;;;;;;;;;20.20;50.30;;;;;;5068912;28;19918;-45
2024/04/01 12:03:21;;;;;;;;;;;20.20;50.30;;;;;;5069782;28;19917;-45
2024/04/01 12:05:48;;;;;;;;;;;20.20;50.30;;;;;;5065664;28;19928;-48
2024/04/01 12:08:14;;;;;;;;;;;20.20;50.40;;;;;;5068322;28;19923;-47
2024/04/01 12:10:42;;;;;;;;;;;20.20;50.40;;;;;;5068387;28;19912;-49
2024/04/01 12:13:09;;;;;;;;;;;20.20;50.30;;;;;;5070121;28;19912;-48
2024/04/01 12:15:35;;;;;;;;;;;20.20;50.30;;;;;;5067654;28;19919;-49
2024/04/01 12:18:00;;;;;;;;;;;20.10;50.30;;;;;;5064711;28;19912;-47
2024/04/01 12:20:32;;;;;;;;;;;20.10;50.30;;;;;;5066059;28;19916;-45
2024/04/01 12:23:03;;;;;;;;;;;20.10;50.40;;;;;;5068195;28;19964;-45
2024/04/01 12:25:29;;;;;;;;;;;20.10;50.30;;;;;;5065259;28;19938;-44
2024/04/01 12:27:57;;;;;;;;;;;20.10;50.40;;;;;;5075040;28;19919;-46
2024/04/01 12:30:24;;;;;;;;;;;20.10;50.30;;;;;;5070675;28;19917;-44
2024/04/01 12:32:49;;;;;;;;;;;20.10;50.30;;;;;;5063240;28;20620;-49
2024/04/01 12:35:15;;;;;;;;;;;20.10;50.30;;;;;;5072259;28;19918;-46
2024/04/01 12:37:41;;;;;;;;;;;20.10;50.30;;;;;;5069483;28;20340;-47
2024/04/01 12:40:07;;;;;;;;;;;20.10;50.30;;;;;;5067659;28;19913;-45
2024/04/01 12:42:36;;;;;;;;;;;20.10;50.30;;;;;;5070691;28;19916;-44
2024/04/01 12:45:03;;;;;;;;;;;20.10;50.30;;;;;;5070756;28;19920;-46
2024/04/01 12:47:29;;;;;;;;;;;20.10;50.30;;;;;;5070856;28;19920;-44
2024/04/01 12:50:01;;;;;;;;;;;20.10;50.30;;;;;;5063480;28;19916;-45
2024/04/01 12:52:50;;;;;;;;;;;20.10;50.40;;;;;;5079333;28;19916;-46
2024/04/01 12:55:23;;;;;;;;;;;20.10;50.30;;;;;;5072465;28;20356;-45
2024/04/01 12:58:00;;;;;;;;;;;20.10;50.30;;;;;;5066580;28;19931;-46
2024/04/01 13:00:29;;;;;;;;;;;20.10;50.30;;;;;;5067013;28;19916;-45
2024/04/01 13:03:14;;;;;;;;;;;20.00;50.20;;;;;;5068806;28;20577;-45
2024/04/01 13:05:59;;;;;;;;;;;20.00;50.20;;;;;;5073618;28;19934;-44
2024/04/01 13:08:34;;;;;;;;;;;20.10;50.30;;;;;;5066073;28;19944;-47
2024/04/01 13:11:09;;;;;;;;;;;20.00;50.20;;;;;;5070919;28;19919;-44
2024/04/01 13:13:47;;;;;;;;;;;20.10;50.80;;;;;;5065516;28;20313;-44
2024/04/01 13:16:32;;;;;;;;;;;20.10;50.30;;;;;;5067132;28;19916;-47
2024/04/01 13:19:14;;;;;;;;;;;20.00;50.20;;;;;;5066946;28;20014;-44
2024/04/01 13:21:43;;;;;;;;;;;20.00;50.20;;;;;;5073115;28;19957;-45
2024/04/01 13:24:20;;;;;;;;;;;20.00;50.20;;;;;;5073091;28;19912;-44
2024/04/01 13:27:02;;;;;;;;;;;20.00;50.10;;;;;;5072220;28;19913;-43
2024/04/01 13:29:48;;;;;;;;;;;20.00;50.20;;;;;;5073362;28;19913;-45
2024/04/01 13:32:20;;;;;;;;;;;20.00;50.10;;;;;;5066569;28;20273;-45
2024/04/01 13:34:49;;;;;;;;;;;20.00;50.10;;;;;;5076399;28;19919;-44
2024/04/01 13:37:34;;;;;;;;;;;20.00;50.10;;;;;;5074803;28;19948;-46
2024/04/01 13:40:18;;;;;;;;;;;20.00;50.20;;;;;;5074350;28;19916;-43
2024/04/01 13:42:49;;;;;;;;;;;20.00;50.20;;;;;;5073513;28;19928;-46
2024/04/01 13:45:27;;;;;;;;;;;20.00;50.10;;;;;;5073306;28;19946;-46
2024/04/01 13:47:58;;;;;;;;;;;20.10;50.20;;;;;;5084302;28;19916;-49
2024/04/01 13:50:27;;;;;;;;;;;20.10;50.20;;;;;;5076408;28;19908;-44
2024/04/01 13:53:12;;;;;;;;;;;20.00;50.10;;;;;;5071340;28;19916;-44
2024/04/01 13:56:04;;;;;;;;;;;20.10;50.20;;;;;;5069146;28;19912;-48
2024/04/01 13:58:41;;;;;;;;;;;20.10;50.10;;;;;;5070352;28;19916;-45
2024/04/01 14:01:20;;;;;;;;;;;20.10;50.10;;;;;;5071551;28;19916;-47
2024/04/01 14:03:52;;;;;;;;;;;20.10;50.10;;;;;;5070876;28;19921;-45
2024/04/01 14:06:30;;;;;;;;;;;20.10;50.10;;;;;;5070134;28;19943;-44
2024/04/01 14:09:08;;;;;;;;;;;20.10;50.20;;;;;;5070121;28;19909;-44
2024/04/01 14:11:41;;;;;;;;;;;20.10;50.10;;;;;;5073822;28;19944;-43
2024/04/01 14:14:17;;;;;;;;;;;20.10;50.10;;;;;;5067650;28;19939;-44
2024/04/01 14:17:16;;;;;;;;;;;20.10;50.10;;;;;;5070297;28;19939;-46
2024/04/01 14:19:44;;;;;;;;;;;20.10;50.20;;;;;;5093893;28;19943;-44
2024/04/01 14:22:11;;;;;;;;;;;20.10;50.20;;;;;;5091948;28;20600;-45
2024/04/01 14:24:37;;;;;;;;;;;20.10;50.20;;;;;;5101878;28;19916;-47